Terminal Aerodrome Forecast
Issued by NWS Brownsville, TX

Home | Current Version | Previous Version | Text Only | Print | Product List | Glossary On
Versions: 1 2 3 4 5 6 7 8 9 10 11 12 13 14 15 16 17 18 19 20
000
FTUS44 KBRO 292320
TAFHRL
TAF
KHRL 292320Z 3000/3024 15013KT P6SM SCT035 SCT045
     FM300200 14010KT P6SM OVC030
     FM300600 15007KT 5SM BR OVC015
     FM301200 16004KT 4SM BR OVC010
     FM301500 17012KT P6SM SCT030 SCT250=

USA.gov is the U.S. government's official web portal to all federal, state and local government web resources and services.